createdAt,value
2022-08-03T00:12:47.464Z,0
2022-08-03T00:27:43.600Z,0
2022-08-03T00:42:39.490Z,0
2022-08-03T00:57:35.522Z,0.01
2022-08-03T01:12:32.073Z,0
2022-08-03T01:27:28.254Z,0
2022-08-03T01:42:23.751Z,0
2022-08-03T01:57:19.991Z,0
2022-08-03T02:12:16.252Z,0
2022-08-03T02:27:12.487Z,0
2022-08-03T02:42:09.260Z,0
2022-08-03T02:57:05.329Z,0
2022-08-03T03:12:01.245Z,0
2022-08-03T03:26:57.435Z,0
2022-08-03T03:41:53.752Z,0.02
2022-08-03T03:56:49.791Z,0.02
2022-08-03T04:11:45.961Z,0.04
2022-08-03T04:26:41.867Z,0.04
2022-08-03T04:42:04.334Z,0.05
2022-08-03T04:56:34.487Z,0.05
2022-08-03T05:11:30.628Z,0.07
2022-08-03T05:26:27.234Z,0.1
2022-08-03T05:41:36.725Z,0.09
2022-08-03T05:56:19.945Z,0.1
2022-08-03T06:11:16.821Z,0.1
2022-08-03T06:26:13.336Z,0.09
2022-08-03T06:41:09.922Z,0.1
2022-08-03T06:56:06.787Z,0.1
2022-08-03T07:11:03.242Z,0.11
2022-08-03T07:25:59.538Z,0.1
2022-08-03T07:40:56.350Z,0.1
2022-08-03T07:55:52.904Z,0.16
2022-08-03T08:10:58.602Z,0.17
2022-08-03T08:25:46.025Z,0.2
2022-08-03T08:40:42.745Z,0.23
2022-08-03T08:55:58.529Z,0.29
2022-08-03T09:10:37.121Z,0.49
2022-08-03T09:25:34.211Z,0.84
2022-08-03T09:40:31.488Z,0.52
2022-08-03T09:56:31.614Z,0.64
2022-08-03T10:10:28.725Z,0.34
2022-08-03T10:25:22.389Z,0.71
2022-08-03T10:40:33.314Z,2.62
2022-08-03T10:55:16.569Z,2.15
2022-08-03T11:10:13.159Z,1.13
2022-08-03T11:25:09.376Z,1.89
2022-08-03T11:40:06.384Z,2.65
2022-08-03T11:55:03.468Z,3.02
2022-08-03T12:10:00.284Z,1.83
2022-08-03T12:24:56.692Z,2.17
2022-08-03T12:40:00.766Z,1.87
2022-08-03T12:54:49.660Z,2.33
2022-08-03T13:09:46.425Z,1.69
2022-08-03T13:24:43.002Z,0.32
2022-08-03T13:39:48.349Z,0.49
2022-08-03T13:54:35.542Z,0.17
2022-08-03T14:09:31.193Z,0.2
2022-08-03T14:24:26.707Z,0.2
2022-08-03T14:39:22.355Z,0.15
2022-08-03T14:54:18.101Z,0.15
2022-08-03T15:09:21.039Z,0.13
2022-08-03T15:24:09.283Z,0.13
2022-08-03T15:39:05.707Z,0.16
2022-08-03T15:54:02.275Z,0.14
2022-08-03T16:08:58.381Z,0.1
2022-08-03T16:23:54.780Z,0.1
2022-08-03T16:38:50.567Z,0.1
2022-08-03T16:54:05.112Z,0.1
2022-08-03T17:08:42.414Z,0.09
2022-08-03T17:23:38.524Z,0.07
2022-08-03T17:38:34.683Z,0.06
2022-08-03T17:53:30.503Z,0.08
2022-08-03T18:08:26.930Z,0.07
2022-08-03T18:23:25.548Z,0.05
2022-08-03T18:38:19.373Z,0.03
2022-08-03T18:53:15.451Z,0.03
2022-08-03T19:08:13.671Z,0.02
2022-08-03T19:23:07.212Z,0.02
2022-08-03T19:38:03.464Z,0.01
2022-08-03T19:52:59.357Z,0.02
2022-08-03T20:07:55.234Z,0
2022-08-03T20:22:51.306Z,0
2022-08-03T20:37:47.134Z,0
2022-08-03T20:52:43.909Z,0
2022-08-03T21:07:45.786Z,0
2022-08-03T21:22:34.108Z,0
2022-08-03T21:37:30.292Z,0
2022-08-03T21:52:26.722Z,0.01
2022-08-03T22:07:23.058Z,0
2022-08-03T22:22:18.664Z,0
2022-08-03T22:37:14.779Z,0
2022-08-03T22:52:10.985Z,0
2022-08-03T23:07:07.205Z,0
2022-08-03T23:22:04.124Z,0
2022-08-03T23:36:58.892Z,0
2022-08-03T23:51:54.971Z,0
